EDLV/NRN METAR and TAF weather

Enter ICAO airport designator
Station Type Date Time Source
EDLV METAR 2021/01/17 18:50 UTC NOAA

EDLV 171850Z 28005KT 9999 BKN013 05/04 Q1022


Station Type Date Time Source
EDLV Decoded METAR 2021/01/17 18:50 UTC NOAA

Niederrhein, Germany (EDLV) 51-36-09N 006-08-32E
Jan 17, 2021 - 01:50 PM EST / 2021.01.17 1850 UTC
Wind: from the W (280 degrees) at 6 MPH (5 KT):0
Visibility: greater than 7 mile(s):0
Sky conditions: mostly cloudy
Temperature: 41 F (5 C)
Dew Point: 39 F (4 C)
Relative Humidity: 93%
Pressure (altimeter): 30.18 in. Hg (1022 hPa)
ob: EDLV 171850Z 28005KT 9999 BKN013 05/04 Q1022
cycle: 19

Station Type Date Time Source
EDLV TAF 2021/01/17 18:42 UTC NOAA

TAF EDLV 171700Z 1718/1818 28005KT 9999 FEW015 BKN030
TEMPO 1804/1812 4000 BR BKN009
BECMG 1808/1811 23010KT

Example: see airport list